Time;durP1;ratioP1;P1;durP2;ratioP2;P2;SDS_P1;SDS_P2;PMS_P1;PMS_P2;Temp;Humidity;BMP_temperature;BMP_pressure;BME280_temperature;BME280_humidity;BME280_pressure;Samples;Min_cycle;Max_cycle;Signal;HPM_P1;HPM_P2
2024/04/15 00:00:34;;;;;;;12.40;0.83;;;;;;;;;;5327383;26;20366;-88
2024/04/15 00:03:04;;;;;;;0.43;0.43;;;;;;;;;;5322187;26;20265;-87
2024/04/15 00:05:30;;;;;;;0.40;0.40;;;;;;;;;;5327321;26;20319;-88
2024/04/15 00:07:56;;;;;;;0.53;0.53;;;;;;;;;;5308245;26;20252;-87
2024/04/15 00:10:23;;;;;;;0.67;0.67;;;;;;;;;;5325801;26;20282;-87
2024/04/15 00:12:51;;;;;;;7.07;1.60;;;;;;;;;;5351695;26;20265;-88
2024/04/15 00:15:17;;;;;;;1.97;1.37;;;;;;;;;;5326975;26;20586;-88
2024/04/15 00:17:43;;;;;;;1.13;1.00;;;;;;;;;;5329054;26;20276;-89
2024/04/15 00:20:10;;;;;;;0.70;0.60;;;;;;;;;;5324195;26;20312;-88
2024/04/15 00:22:38;;;;;;;0.37;0.37;;;;;;;;;;5299836;26;20248;-88
2024/04/15 00:25:04;;;;;;;0.97;0.80;;;;;;;;;;5310318;26;20299;-88
2024/04/15 00:27:30;;;;;;;2.00;0.93;;;;;;;;;;5299538;26;20277;-89
2024/04/15 00:29:57;;;;;;;0.50;0.50;;;;;;;;;;5296930;26;20280;-88
2024/04/15 00:32:23;;;;;;;0.63;0.63;;;;;;;;;;5322528;26;20286;-87
2024/04/15 00:34:51;;;;;;;10.23;0.70;;;;;;;;;;5321763;26;20248;-88
2024/04/15 00:37:17;;;;;;;0.90;0.77;;;;;;;;;;5326999;26;20248;-89
2024/04/15 00:39:44;;;;;;;0.23;0.23;;;;;;;;;;5294487;26;20273;-89
2024/04/15 00:42:10;;;;;;;0.30;0.30;;;;;;;;;;5297663;26;20272;-88
2024/04/15 00:44:36;;;;;;;1.60;1.33;;;;;;;;;;5307562;26;20307;-87
2024/04/15 00:47:02;;;;;;;0.30;0.30;;;;;;;;;;5324131;26;20341;-87
2024/04/15 00:49:32;;;;;;;0.80;0.80;;;;;;;;;;5325873;26;20244;-88
2024/04/15 00:51:59;;;;;;;0.57;0.57;;;;;;;;;;5353764;26;20307;-88
2024/04/15 00:54:26;;;;;;;14.23;1.17;;;;;;;;;;5296649;26;20361;-88
2024/04/15 00:56:52;;;;;;;0.70;0.70;;;;;;;;;;5326069;26;20304;-89
2024/04/15 00:59:19;;;;;;;3.20;1.67;;;;;;;;;;5327440;26;20735;-89
2024/04/15 01:01:47;;;;;;;0.30;0.30;;;;;;;;;;5297461;26;20252;-90
2024/04/15 01:04:14;;;;;;;1.43;1.37;;;;;;;;;;5323562;26;20248;-88
2024/04/15 01:06:40;;;;;;;1.27;1.17;;;;;;;;;;5296742;26;21188;-90
2024/04/15 01:09:07;;;;;;;0.60;0.50;;;;;;;;;;5326586;26;20260;-88
2024/04/15 01:11:33;;;;;;;0.53;0.53;;;;;;;;;;5292733;26;20296;-90
2024/04/15 01:14:01;;;;;;;14.93;1.07;;;;;;;;;;5298988;26;20256;-89
2024/04/15 01:16:34;;;;;;;1.57;1.23;;;;;;;;;;5322000;26;20829;-88
2024/04/15 01:19:00;;;;;;;0.30;0.30;;;;;;;;;;5353913;26;20276;-89
2024/04/15 01:21:26;;;;;;;1.77;0.87;;;;;;;;;;5348305;26;20767;-89
2024/04/15 01:23:53;;;;;;;0.27;0.27;;;;;;;;;;5291311;26;20268;-90
2024/04/15 01:26:19;;;;;;;1.80;0.90;;;;;;;;;;5324949;26;20331;-89
2024/04/15 01:28:45;;;;;;;1.07;0.57;;;;;;;;;;5291206;26;20253;-89
2024/04/15 01:31:11;;;;;;;0.63;0.63;;;;;;;;;;5322877;26;20284;-89
2024/04/15 01:33:37;;;;;;;0.67;0.67;;;;;;;;;;5320876;26;20280;-89
2024/04/15 01:36:03;;;;;;;0.20;0.20;;;;;;;;;;5354762;26;20268;-88
2024/04/15 01:38:29;;;;;;;0.40;0.40;;;;;;;;;;5296020;26;20364;-89
2024/04/15 01:40:56;;;;;;;1.40;0.87;;;;;;;;;;5323939;26;20252;-89
2024/04/15 01:43:22;;;;;;;1.23;0.97;;;;;;;;;;5298409;26;20248;-89
2024/04/15 01:45:50;;;;;;;0.97;0.97;;;;;;;;;;5326521;26;20311;-89
2024/04/15 01:48:16;;;;;;;0.50;0.50;;;;;;;;;;5325138;26;20256;-89
2024/04/15 01:50:42;;;;;;;0.77;0.77;;;;;;;;;;5354266;26;20370;-88
2024/04/15 01:53:11;;;;;;;0.80;0.80;;;;;;;;;;5298630;26;20265;-90
2024/04/15 01:55:40;;;;;;;2.13;1.93;;;;;;;;;;5330426;26;20254;-89
2024/04/15 01:58:06;;;;;;;1.50;1.50;;;;;;;;;;5323567;26;20688;-89
2024/04/15 02:00:32;;;;;;;0.80;0.80;;;;;;;;;;5320841;26;20265;-87
2024/04/15 02:02:58;;;;;;;1.27;0.67;;;;;;;;;;5350906;26;20264;-89
2024/04/15 02:05:24;;;;;;;0.80;0.80;;;;;;;;;;5324140;26;20307;-86
2024/04/15 02:07:51;;;;;;;0.80;0.80;;;;;;;;;;5327464;26;20724;-88
2024/04/15 02:10:17;;;;;;;1.03;1.03;;;;;;;;;;5322644;26;20260;-89
2024/04/15 02:12:46;;;;;;;0.63;0.63;;;;;;;;;;5323869;26;20352;-88
2024/04/15 02:15:15;;;;;;;0.43;0.43;;;;;;;;;;5315530;26;20351;-88
2024/04/15 02:17:41;;;;;;;1.07;1.07;;;;;;;;;;5322693;26;20280;-90
2024/04/15 02:20:07;;;;;;;2.37;1.50;;;;;;;;;;5321387;26;20322;-91
2024/04/15 02:22:34;;;;;;;0.40;0.40;;;;;;;;;;5296417;26;20309;-89
2024/04/15 02:25:00;;;;;;;10.97;1.87;;;;;;;;;;5373101;26;20317;-88
2024/04/15 02:27:26;;;;;;;0.50;0.50;;;;;;;;;;5313016;26;20787;-88
2024/04/15 02:29:53;;;;;;;0.50;0.50;;;;;;;;;;5333201;26;20268;-88
2024/04/15 02:32:19;;;;;;;2.00;1.90;;;;;;;;;;5352730;26;20277;-90
2024/04/15 02:34:45;;;;;;;0.87;0.83;;;;;;;;;;5309394;26;20248;-89
2024/04/15 02:37:11;;;;;;;0.57;0.40;;;;;;;;;;5374301;26;20339;-88
2024/04/15 02:39:41;;;;;;;0.33;0.33;;;;;;;;;;5328109;26;20301;-88
2024/04/15 02:42:07;;;;;;;0.40;0.40;;;;;;;;;;5334759;26;20257;-90
2024/04/15 02:44:33;;;;;;;1.10;1.00;;;;;;;;;;5354134;26;20303;-91
2024/04/15 02:46:59;;;;;;;0.87;0.70;;;;;;;;;;5320704;26;20612;-91
2024/04/15 02:49:25;;;;;;;0.80;0.80;;;;;;;;;;5355712;26;20367;-91
2024/04/15 02:51:54;;;;;;;0.83;0.83;;;;;;;;;;5326437;26;20265;-88
2024/04/15 02:54:20;;;;;;;0.97;0.97;;;;;;;;;;5322234;26;20269;-88
2024/04/15 02:56:46;;;;;;;1.03;1.03;;;;;;;;;;5294675;26;20364;-89
2024/04/15 02:59:12;;;;;;;5.30;1.00;;;;;;;;;;5290759;26;20268;-89
2024/04/15 03:01:38;;;;;;;0.97;0.50;;;;;;;;;;5321457;26;20716;-88
2024/04/15 03:04:05;;;;;;;2.03;1.47;;;;;;;;;;5335468;26;21324;-91
2024/04/15 03:06:31;;;;;;;0.40;0.40;;;;;;;;;;5347994;26;20267;-88
2024/04/15 03:08:57;;;;;;;1.90;1.80;;;;;;;;;;5298685;26;20739;-90
2024/04/15 03:11:23;;;;;;;1.73;0.90;;;;;;;;;;5306344;26;20268;-91
2024/04/15 03:13:49;;;;;;;6.33;1.53;;;;;;;;;;5322554;26;20709;-90
2024/04/15 03:16:15;;;;;;;0.30;0.30;;;;;;;;;;5359454;26;20290;-90
2024/04/15 03:18:42;;;;;;;1.20;1.10;;;;;;;;;;5299560;26;20269;-90
2024/04/15 03:21:08;;;;;;;0.53;0.53;;;;;;;;;;5323535;26;20307;-90
2024/04/15 03:23:34;;;;;;;1.37;1.23;;;;;;;;;;5326131;26;20276;-88
2024/04/15 03:26:01;;;;;;;0.40;0.40;;;;;;;;;;5296742;26;20296;-91
2024/04/15 03:28:29;;;;;;;0.57;0.33;;;;;;;;;;5355007;26;20896;-91
2024/04/15 03:30:58;;;;;;;0.83;0.83;;;;;;;;;;5297019;26;20330;-90
2024/04/15 03:33:27;;;;;;;0.57;0.57;;;;;;;;;;5326467;26;20422;-90
2024/04/15 03:35:53;;;;;;;0.50;0.50;;;;;;;;;;5310646;26;20264;-90
2024/04/15 03:38:19;;;;;;;3.03;0.67;;;;;;;;;;5327165;26;20265;-90
2024/04/15 03:40:45;;;;;;;2.33;1.17;;;;;;;;;;5328856;26;20248;-90
2024/04/15 03:43:11;;;;;;;0.57;0.57;;;;;;;;;;5328736;26;20316;-90
2024/04/15 03:45:37;;;;;;;1.03;0.40;;;;;;;;;;5301309;26;20320;-90
2024/04/15 03:48:04;;;;;;;0.40;0.40;;;;;;;;;;5298693;26;20310;-88
2024/04/15 03:50:30;;;;;;;0.63;0.63;;;;;;;;;;5265439;26;20277;-91
2024/04/15 03:52:58;;;;;;;1.73;0.87;;;;;;;;;;5260065;26;20277;-90
2024/04/15 03:55:25;;;;;;;4.20;1.13;;;;;;;;;;5265137;26;20234;-91
2024/04/15 03:57:51;;;;;;;0.30;0.30;;;;;;;;;;5243235;26;20270;-89
2024/04/15 04:00:17;;;;;;;0.47;0.47;;;;;;;;;;5289857;26;20681;-89
2024/04/15 04:02:46;;;;;;;2.17;0.57;;;;;;;;;;5263329;26;20906;-88
2024/04/15 04:05:12;;;;;;;0.97;0.60;;;;;;;;;;5289414;26;20277;-88
2024/04/15 04:07:38;;;;;;;2.10;0.90;;;;;;;;;;5303845;26;20253;-89
2024/04/15 04:10:04;;;;;;;0.67;0.67;;;;;;;;;;5289377;26;20321;-89
2024/04/15 04:12:31;;;;;;;0.67;0.67;;;;;;;;;;5287018;26;20266;-91
2024/04/15 04:14:57;;;;;;;2.00;1.03;;;;;;;;;;5302456;26;20269;-87
2024/04/15 04:17:23;;;;;;;1.10;0.90;;;;;;;;;;5232684;26;20786;-88
2024/04/15 04:19:56;;;;;;;0.73;0.73;;;;;;;;;;5295343;26;20346;-91
2024/04/15 04:22:22;;;;;;;1.23;0.93;;;;;;;;;;5317354;26;20280;-90
2024/04/15 04:24:51;;;;;;;0.50;0.50;;;;;;;;;;5324598;26;21337;-90
2024/04/15 04:27:17;;;;;;;3.27;0.97;;;;;;;;;;5354415;26;20358;-91
2024/04/15 04:29:43;;;;;;;1.07;0.70;;;;;;;;;;5353166;26;20358;-89
2024/04/15 04:32:09;;;;;;;3.60;1.07;;;;;;;;;;5322548;26;20323;-89
2024/04/15 04:34:36;;;;;;;1.03;0.63;;;;;;;;;;5327906;26;20346;-89
2024/04/15 04:37:02;;;;;;;3.70;0.90;;;;;;;;;;5323717;26;20267;-89
2024/04/15 04:39:28;;;;;;;1.53;1.27;;;;;;;;;;5296715;26;20268;-90
2024/04/15 04:41:54;;;;;;;0.47;0.47;;;;;;;;;;5327595;26;20265;-89
2024/04/15 04:44:20;;;;;;;0.83;0.83;;;;;;;;;;5346379;26;20261;-88
2024/04/15 04:46:48;;;;;;;0.67;0.67;;;;;;;;;;5308692;26;20645;-89
2024/04/15 04:49:14;;;;;;;2.27;1.73;;;;;;;;;;5326992;26;20298;-90
2024/04/15 04:51:40;;;;;;;0.77;0.70;;;;;;;;;;5328450;26;20268;-88
2024/04/15 04:54:07;;;;;;;4.93;1.47;;;;;;;;;;5320712;26;20268;-88
2024/04/15 04:56:33;;;;;;;4.03;2.10;;;;;;;;;;5354161;26;20303;-89
2024/04/15 04:59:00;;;;;;;3.30;2.00;;;;;;;;;;5323500;26;20292;-89
2024/04/15 05:01:26;;;;;;;2.87;1.03;;;;;;;;;;5337637;26;20249;-90
2024/04/15 05:03:52;;;;;;;4.83;1.57;;;;;;;;;;5351918;26;20753;-89
2024/04/15 05:06:18;;;;;;;0.43;0.43;;;;;;;;;;5328747;26;20269;-90
2024/04/15 05:08:45;;;;;;;0.60;0.60;;;;;;;;;;5323213;26;20695;-90
2024/04/15 05:11:11;;;;;;;0.50;0.50;;;;;;;;;;5327388;26;20260;-89
2024/04/15 05:13:38;;;;;;;0.60;0.60;;;;;;;;;;5356314;26;20263;-86
2024/04/15 05:16:04;;;;;;;1.43;1.33;;;;;;;;;;5324844;26;20265;-90
2024/04/15 05:18:30;;;;;;;1.33;1.10;;;;;;;;;;5321532;26;20787;-88
2024/04/15 05:20:59;;;;;;;1.63;1.20;;;;;;;;;;5322751;26;20268;-90
2024/04/15 05:23:25;;;;;;;0.83;0.83;;;;;;;;;;5326206;26;20264;-88
2024/04/15 05:25:51;;;;;;;0.97;0.97;;;;;;;;;;5355579;26;20890;-89
2024/04/15 05:28:17;;;;;;;1.47;1.37;;;;;;;;;;5299877;26;20244;-87
2024/04/15 05:30:44;;;;;;;0.63;0.63;;;;;;;;;;5324561;26;20268;-86
2024/04/15 05:33:13;;;;;;;1.27;1.17;;;;;;;;;;5322264;26;20276;-89
2024/04/15 05:35:41;;;;;;;0.60;0.60;;;;;;;;;;5324497;26;20276;-89
2024/04/15 05:38:07;;;;;;;0.30;0.30;;;;;;;;;;5326793;26;20273;-90
2024/04/15 05:40:33;;;;;;;3.53;1.37;;;;;;;;;;5353170;26;20256;-90
2024/04/15 05:43:02;;;;;;;0.67;0.67;;;;;;;;;;5327813;26;20252;-90
2024/04/15 05:45:28;;;;;;;1.50;1.13;;;;;;;;;;5323669;26;20329;-90
2024/04/15 05:47:57;;;;;;;0.70;0.60;;;;;;;;;;5291276;26;20291;-88
2024/04/15 05:50:28;;;;;;;2.03;1.77;;;;;;;;;;5332591;26;20269;-87
2024/04/15 05:52:55;;;;;;;1.10;1.10;;;;;;;;;;5328680;26;20419;-89
2024/04/15 05:55:21;;;;;;;1.57;1.07;;;;;;;;;;5357339;26;20252;-90
2024/04/15 05:57:47;;;;;;;1.50;1.13;;;;;;;;;;5285554;26;20371;-88
2024/04/15 06:00:14;;;;;;;7.97;1.60;;;;;;;;;;5285999;26;20377;-90
2024/04/15 06:02:40;;;;;;;3.53;0.80;;;;;;;;;;5259608;26;20258;-87
2024/04/15 06:05:06;;;;;;;2.07;1.47;;;;;;;;;;5260975;26;20244;-89
2024/04/15 06:07:32;;;;;;;12.40;1.87;;;;;;;;;;5319146;26;20241;-89
2024/04/15 06:10:02;;;;;;;11.17;1.50;;;;;;;;;;5233197;27;20274;-91
2024/04/15 06:12:36;;;;;;;3.90;0.73;;;;;;;;;;5209580;27;20426;-90
2024/04/15 06:15:02;;;;;;;3.30;0.83;;;;;;;;;;5211959;27;20250;-91
2024/04/15 06:17:31;;;;;;;1.33;1.07;;;;;;;;;;5229333;27;20271;-92
2024/04/15 06:20:00;;;;;;;1.90;0.97;;;;;;;;;;5195135;27;20320;-89
2024/04/15 06:22:30;;;;;;;8.80;1.53;;;;;;;;;;5252784;27;20238;-90
2024/04/15 06:24:59;;;;;;;2.43;1.57;;;;;;;;;;5222294;27;20308;-92
2024/04/15 06:27:31;;;;;;;2.57;0.93;;;;;;;;;;5258466;26;20370;-90
2024/04/15 06:30:04;;;;;;;6.43;1.00;;;;;;;;;;5291914;26;20256;-90
2024/04/15 06:32:30;;;;;;;0.83;0.83;;;;;;;;;;5298384;26;20273;-87
2024/04/15 06:34:56;;;;;;;0.67;0.53;;;;;;;;;;5322843;26;20256;-90
2024/04/15 06:37:24;;;;;;;1.80;0.97;;;;;;;;;;5318194;26;20324;-90
2024/04/15 06:39:50;;;;;;;6.40;1.00;;;;;;;;;;5327097;26;20268;-90
2024/04/15 06:42:16;;;;;;;6.80;1.47;;;;;;;;;;5319749;26;20307;-90
2024/04/15 06:44:46;;;;;;;0.63;0.63;;;;;;;;;;5294981;26;20373;-89
2024/04/15 06:47:14;;;;;;;1.50;0.90;;;;;;;;;;5325708;26;20290;-91
2024/04/15 06:49:40;;;;;;;0.50;0.33;;;;;;;;;;5321725;26;20755;-91
2024/04/15 06:52:07;;;;;;;0.37;0.37;;;;;;;;;;5353164;26;20256;-92
2024/04/15 06:54:36;;;;;;;0.83;0.83;;;;;;;;;;5324491;26;20268;-92
2024/04/15 06:57:03;;;;;;;3.50;0.33;;;;;;;;;;5323284;26;20265;-91
2024/04/15 06:59:31;;;;;;;1.87;0.97;;;;;;;;;;5324056;26;20791;-90
2024/04/15 07:01:58;;;;;;;8.87;1.13;;;;;;;;;;5270773;27;20250;-88
2024/04/15 07:04:24;;;;;;;0.53;0.53;;;;;;;;;;5215748;27;20659;-89
2024/04/15 07:06:50;;;;;;;0.40;0.40;;;;;;;;;;5260684;27;20373;-89
2024/04/15 07:09:16;;;;;;;0.87;0.60;;;;;;;;;;5242937;27;20266;-87
2024/04/15 07:11:46;;;;;;;0.83;0.57;;;;;;;;;;5214710;27;20258;-88
2024/04/15 07:14:12;;;;;;;0.80;0.53;;;;;;;;;;5232615;27;20270;-87
2024/04/15 07:16:38;;;;;;;0.50;0.50;;;;;;;;;;5298701;27;20287;-88
2024/04/15 07:19:04;;;;;;;4.40;0.90;;;;;;;;;;5242916;27;20300;-88
2024/04/15 07:21:30;;;;;;;3.90;0.70;;;;;;;;;;5232984;27;20300;-87
2024/04/15 07:23:59;;;;;;;5.23;0.80;;;;;;;;;;5231899;27;20306;-88
2024/04/15 07:26:25;;;;;;;4.33;0.87;;;;;;;;;;5269334;27;20435;-87
2024/04/15 07:28:55;;;;;;;3.27;1.60;;;;;;;;;;5241147;27;20318;-89
2024/04/15 07:31:24;;;;;;;5.60;1.03;;;;;;;;;;5241920;27;20770;-88
2024/04/15 07:33:50;;;;;;;3.67;1.57;;;;;;;;;;5231480;27;20266;-88
2024/04/15 07:36:16;;;;;;;0.40;0.40;;;;;;;;;;5263553;27;20263;-88
2024/04/15 07:38:43;;;;;;;0.97;0.87;;;;;;;;;;5219613;26;20272;-88
2024/04/15 07:41:09;;;;;;;0.83;0.60;;;;;;;;;;5272197;26;20797;-86
2024/04/15 07:43:35;;;;;;;0.67;0.60;;;;;;;;;;5267388;26;20238;-87
2024/04/15 07:46:01;;;;;;;1.90;0.93;;;;;;;;;;5286342;26;20293;-89
2024/04/15 07:48:27;;;;;;;0.60;0.60;;;;;;;;;;5232772;26;20283;-89
2024/04/15 07:50:56;;;;;;;0.37;0.37;;;;;;;;;;5243199;26;20270;-87
2024/04/15 07:53:22;;;;;;;3.73;1.03;;;;;;;;;;5258933;26;20305;-87
2024/04/15 07:55:48;;;;;;;2.67;0.80;;;;;;;;;;5286557;26;20249;-89
2024/04/15 07:58:14;;;;;;;1.73;0.60;;;;;;;;;;5259562;26;20243;-88
2024/04/15 08:00:40;;;;;;;1.67;1.10;;;;;;;;;;5284851;26;20304;-87
2024/04/15 08:03:09;;;;;;;0.53;0.53;;;;;;;;;;5285139;26;20273;-88
2024/04/15 08:05:35;;;;;;;0.40;0.40;;;;;;;;;;5259212;26;20295;-88
2024/04/15 08:08:01;;;;;;;4.33;1.13;;;;;;;;;;5314366;26;20340;-87
2024/04/15 08:10:28;;;;;;;3.40;1.10;;;;;;;;;;5351097;26;20276;-87
2024/04/15 08:12:54;;;;;;;4.27;1.17;;;;;;;;;;5328586;26;20535;-85
2024/04/15 08:15:23;;;;;;;0.60;0.60;;;;;;;;;;5322090;26;20268;-86
2024/04/15 08:17:50;;;;;;;0.50;0.50;;;;;;;;;;5304190;26;20332;-85
2024/04/15 08:20:16;;;;;;;3.13;0.83;;;;;;;;;;5302714;26;20265;-86
2024/04/15 08:22:45;;;;;;;3.50;1.00;;;;;;;;;;5301745;26;20292;-83
2024/04/15 08:25:11;;;;;;;0.70;0.70;;;;;;;;;;5293251;27;20262;-84
2024/04/15 08:27:37;;;;;;;0.47;0.47;;;;;;;;;;5296600;27;20381;-85
2024/04/15 08:30:04;;;;;;;0.70;0.67;;;;;;;;;;5266006;27;20296;-85
2024/04/15 08:32:30;;;;;;;0.47;0.40;;;;;;;;;;5270107;27;20359;-84
2024/04/15 08:34:56;;;;;;;0.77;0.77;;;;;;;;;;5298438;27;20242;-84
2024/04/15 08:37:22;;;;;;;0.70;0.47;;;;;;;;;;5269019;27;20280;-84
2024/04/15 08:39:48;;;;;;;0.73;0.57;;;;;;;;;;5267323;27;20289;-82
2024/04/15 08:42:15;;;;;;;3.03;0.93;;;;;;;;;;5227758;27;20440;-86
2024/04/15 08:44:43;;;;;;;0.50;0.50;;;;;;;;;;5268975;27;20394;-87
2024/04/15 08:47:13;;;;;;;2.83;0.83;;;;;;;;;;5269707;27;20600;-86
2024/04/15 08:49:39;;;;;;;2.00;0.80;;;;;;;;;;5212791;27;20582;-86
2024/04/15 08:52:06;;;;;;;4.50;0.70;;;;;;;;;;5198570;27;20264;-84
2024/04/15 08:54:33;;;;;;;1.20;0.90;;;;;;;;;;5200073;27;20277;-84
2024/04/15 08:57:01;;;;;;;1.90;0.40;;;;;;;;;;5231384;27;20300;-84
2024/04/15 08:59:30;;;;;;;0.60;0.50;;;;;;;;;;5269866;27;20274;-84
2024/04/15 09:01:56;;;;;;;0.80;0.80;;;;;;;;;;5268870;27;20251;-87
2024/04/15 09:04:23;;;;;;;0.83;0.67;;;;;;;;;;5268704;27;20341;-86
2024/04/15 09:06:49;;;;;;;5.60;0.97;;;;;;;;;;5268320;27;20278;-87
2024/04/15 09:09:15;;;;;;;0.40;0.40;;;;;;;;;;5268048;27;20755;-86
2024/04/15 09:11:41;;;;;;;2.07;1.03;;;;;;;;;;5296275;27;20321;-85
2024/04/15 09:14:08;;;;;;;1.77;0.73;;;;;;;;;;5268558;27;20270;-86
2024/04/15 09:16:34;;;;;;;1.40;0.50;;;;;;;;;;5269745;27;20337;-85
2024/04/15 09:19:06;;;;;;;0.53;0.50;;;;;;;;;;5267340;27;20288;-86
2024/04/15 09:21:33;;;;;;;0.73;0.60;;;;;;;;;;5341728;26;20261;-85
2024/04/15 09:23:59;;;;;;;0.30;0.30;;;;;;;;;;5299079;26;20261;-85
2024/04/15 09:26:25;;;;;;;0.77;0.47;;;;;;;;;;5323409;26;20276;-86
2024/04/15 09:28:51;;;;;;;1.53;0.77;;;;;;;;;;5324314;26;20762;-85
2024/04/15 09:31:17;;;;;;;0.20;0.20;;;;;;;;;;5313904;26;20241;-84
2024/04/15 09:33:44;;;;;;;0.40;0.40;;;;;;;;;;5286534;26;20653;-83
2024/04/15 09:36:11;;;;;;;1.80;0.53;;;;;;;;;;5259713;26;20770;-86
2024/04/15 09:38:38;;;;;;;0.67;0.67;;;;;;;;;;5286966;26;20262;-87
2024/04/15 09:41:06;;;;;;;0.30;0.30;;;;;;;;;;5271389;26;20357;-85
2024/04/15 09:43:32;;;;;;;2.07;0.73;;;;;;;;;;5258778;26;20241;-86
2024/04/15 09:46:00;;;;;;;0.60;0.60;;;;;;;;;;5288668;26;20299;-83
2024/04/15 09:48:27;;;;;;;1.40;1.30;;;;;;;;;;5285815;26;20374;-84
2024/04/15 09:50:54;;;;;;;0.10;0.10;;;;;;;;;;5270495;26;20272;-84
2024/04/15 09:53:41;;;;;;;0.30;0.30;;;;;;;;;;5284159;26;20265;-83
2024/04/15 09:56:12;;;;;;;0.50;0.50;;;;;;;;;;5253893;26;20317;-85
2024/04/15 09:58:40;;;;;;;0.47;0.40;;;;;;;;;;5279310;26;20257;-84
2024/04/15 10:01:07;;;;;;;1.70;0.97;;;;;;;;;;5283596;26;20741;-84
2024/04/15 10:03:35;;;;;;;0.40;0.40;;;;;;;;;;5323160;26;20261;-84
2024/04/15 10:06:02;;;;;;;0.73;0.53;;;;;;;;;;5349893;26;20302;-84
2024/04/15 10:08:29;;;;;;;8.63;0.80;;;;;;;;;;5324487;26;20307;-83
2024/04/15 10:10:56;;;;;;;14.20;1.20;;;;;;;;;;5335559;26;20244;-85
2024/04/15 10:13:23;;;;;;;0.60;0.50;;;;;;;;;;5328964;26;20236;-84
2024/04/15 10:15:57;;;;;;;0.77;0.77;;;;;;;;;;5334938;26;20290;-85
2024/04/15 10:18:28;;;;;;;1.03;0.93;;;;;;;;;;5364352;26;20282;-84
2024/04/15 10:20:55;;;;;;;2.53;1.23;;;;;;;;;;5361760;26;20306;-84
2024/04/15 10:23:24;;;;;;;1.67;0.97;;;;;;;;;;5368122;26;20269;-85
2024/04/15 10:25:51;;;;;;;5.13;2.17;;;;;;;;;;5335383;26;20363;-85
2024/04/15 10:28:17;;;;;;;1.37;0.87;;;;;;;;;;5335380;26;20759;-86
2024/04/15 10:30:47;;;;;;;5.40;0.80;;;;;;;;;;5361376;26;20258;-87
2024/04/15 10:33:15;;;;;;;10.10;1.70;;;;;;;;;;5361757;26;20261;-85
2024/04/15 10:35:42;;;;;;;1.70;1.57;;;;;;;;;;5332434;26;20346;-85
2024/04/15 10:38:09;;;;;;;1.60;1.50;;;;;;;;;;5326148;26;20302;-83
2024/04/15 10:40:45;;;;;;;2.20;1.93;;;;;;;;;;5351774;26;20249;-83
2024/04/15 10:43:14;;;;;;;2.37;2.23;;;;;;;;;;5324885;26;20277;-83
2024/04/15 10:45:41;;;;;;;1.60;1.33;;;;;;;;;;5321043;26;20792;-85
2024/04/15 10:48:07;;;;;;;1.30;1.20;;;;;;;;;;5324258;26;20267;-84
2024/04/15 10:50:33;;;;;;;2.17;1.50;;;;;;;;;;5314939;26;20273;-83
2024/04/15 10:52:59;;;;;;;1.53;1.23;;;;;;;;;;5320898;26;20247;-83
2024/04/15 10:55:25;;;;;;;2.40;1.13;;;;;;;;;;5295148;26;20740;-86
2024/04/15 10:57:52;;;;;;;1.40;1.17;;;;;;;;;;5322953;26;20275;-85
2024/04/15 11:00:18;;;;;;;1.10;1.00;;;;;;;;;;5351553;26;20758;-87
2024/04/15 11:02:45;;;;;;;1.47;1.07;;;;;;;;;;5298373;26;20373;-83
2024/04/15 11:05:12;;;;;;;1.40;1.40;;;;;;;;;;5325419;26;20268;-83
2024/04/15 11:07:39;;;;;;;1.10;1.07;;;;;;;;;;5356595;26;20636;-86
2024/04/15 11:10:07;;;;;;;0.40;0.40;;;;;;;;;;5325672;26;20304;-83
2024/04/15 11:12:37;;;;;;;2.03;0.57;;;;;;;;;;5327688;26;20281;-83
2024/04/15 11:15:04;;;;;;;0.80;0.80;;;;;;;;;;5325061;26;20306;-83
2024/04/15 11:17:33;;;;;;;0.60;0.60;;;;;;;;;;5357598;26;20392;-87
2024/04/15 11:20:04;;;;;;;0.70;0.47;;;;;;;;;;5319659;26;20298;-83
2024/04/15 11:22:31;;;;;;;2.30;0.60;;;;;;;;;;5322141;26;20284;-85
2024/04/15 11:24:57;;;;;;;0.67;0.63;;;;;;;;;;5259291;26;20261;-83
2024/04/15 11:27:26;;;;;;;0.30;0.30;;;;;;;;;;5230092;26;20295;-83
2024/04/15 11:29:55;;;;;;;2.07;0.20;;;;;;;;;;5257961;26;20297;-85
2024/04/15 11:32:22;;;;;;;0.20;0.20;;;;;;;;;;5256676;26;20270;-84
2024/04/15 11:34:48;;;;;;;0.30;0.30;;;;;;;;;;5285334;26;20242;-84
2024/04/15 11:37:14;;;;;;;0.20;0.20;;;;;;;;;;5289199;26;20412;-86
2024/04/15 11:39:40;;;;;;;0.30;0.30;;;;;;;;;;5262483;26;20437;-84
2024/04/15 11:42:08;;;;;;;0.10;0.10;;;;;;;;;;5298988;26;20852;-86
2024/04/15 11:44:35;;;;;;;0.20;0.20;;;;;;;;;;5316563;26;20260;-83
2024/04/15 11:47:01;;;;;;;0.30;0.30;;;;;;;;;;5299309;26;20245;-85
2024/04/15 11:49:27;;;;;;;0.20;0.20;;;;;;;;;;5231574;26;20276;-85
2024/04/15 11:51:59;;;;;;;0.50;0.47;;;;;;;;;;5239488;26;20739;-82
2024/04/15 11:54:29;;;;;;;0.30;0.20;;;;;;;;;;5333877;26;20287;-85
2024/04/15 11:56:55;;;;;;;0.30;0.30;;;;;;;;;;5357347;26;21104;-85
2024/04/15 11:59:22;;;;;;;0.40;0.40;;;;;;;;;;5354394;26;20303;-85
2024/04/15 12:01:48;;;;;;;0.20;0.20;;;;;;;;;;5304441;26;20248;-83
2024/04/15 12:04:14;;;;;;;0.30;0.30;;;;;;;;;;5355432;26;20290;-83
2024/04/15 12:06:43;;;;;;;0.73;0.67;;;;;;;;;;5288679;26;20400;-82
2024/04/15 12:09:10;;;;;;;0.43;0.40;;;;;;;;;;5231715;27;20363;-83
2024/04/15 12:11:36;;;;;;;0.40;0.40;;;;;;;;;;5289571;26;20301;-84
2024/04/15 12:14:02;;;;;;;0.40;0.40;;;;;;;;;;5194227;27;20298;-86
2024/04/15 12:16:28;;;;;;;0.20;0.20;;;;;;;;;;5241624;27;20291;-83
2024/04/15 12:18:54;;;;;;;0.13;0.13;;;;;;;;;;5201694;27;21330;-84
2024/04/15 12:21:24;;;;;;;0.23;0.23;;;;;;;;;;5199666;27;20317;-84
2024/04/15 12:23:50;;;;;;;0.37;0.33;;;;;;;;;;5224296;27;20787;-83
2024/04/15 12:26:18;;;;;;;2.57;0.60;;;;;;;;;;5198123;27;20301;-85
2024/04/15 12:28:44;;;;;;;0.97;0.97;;;;;;;;;;5222844;27;20901;-86
2024/04/15 12:31:12;;;;;;;0.37;0.37;;;;;;;;;;5193929;27;20470;-85
2024/04/15 12:33:38;;;;;;;1.10;1.10;;;;;;;;;;5194129;27;20445;-87
2024/04/15 12:36:04;;;;;;;0.50;0.50;;;;;;;;;;5194777;27;20583;-86
2024/04/15 12:38:30;;;;;;;0.60;0.60;;;;;;;;;;5281547;26;20295;-86
2024/04/15 12:40:57;;;;;;;1.63;0.60;;;;;;;;;;5323245;26;20275;-84
2024/04/15 12:43:23;;;;;;;0.67;0.67;;;;;;;;;;5325939;26;20249;-85
2024/04/15 12:45:49;;;;;;;0.33;0.33;;;;;;;;;;5264792;26;20264;-87
2024/04/15 12:48:16;;;;;;;1.43;0.33;;;;;;;;;;5234433;26;20273;-88
2024/04/15 12:50:46;;;;;;;0.20;0.20;;;;;;;;;;5288190;26;20261;-86
2024/04/15 12:53:13;;;;;;;0.23;0.23;;;;;;;;;;5241862;26;20873;-85
2024/04/15 12:55:39;;;;;;;0.17;0.17;;;;;;;;;;5283321;26;20276;-86
2024/04/15 12:58:05;;;;;;;0.33;0.30;;;;;;;;;;5285113;26;20246;-85
2024/04/15 13:00:31;;;;;;;0.87;0.40;;;;;;;;;;5261961;26;20831;-86
2024/04/15 13:02:58;;;;;;;0.30;0.30;;;;;;;;;;5289396;26;20301;-86
2024/04/15 13:05:25;;;;;;;0.63;0.57;;;;;;;;;;5286630;26;20266;-84
2024/04/15 13:07:51;;;;;;;0.40;0.40;;;;;;;;;;5287820;26;21083;-86
2024/04/15 13:10:18;;;;;;;0.27;0.27;;;;;;;;;;5288607;26;20851;-87
2024/04/15 13:12:44;;;;;;;0.57;0.50;;;;;;;;;;5263431;26;20245;-84
2024/04/15 13:15:10;;;;;;;0.77;0.50;;;;;;;;;;5233578;26;20336;-86
2024/04/15 13:17:37;;;;;;;0.93;0.93;;;;;;;;;;5232357;26;20266;-86
2024/04/15 13:20:06;;;;;;;0.80;0.80;;;;;;;;;;5258163;26;20303;-86
2024/04/15 13:22:32;;;;;;;0.50;0.50;;;;;;;;;;5299180;26;20716;-88
2024/04/15 13:24:58;;;;;;;0.57;0.57;;;;;;;;;;5352511;26;20350;-87
2024/04/15 13:27:27;;;;;;;0.20;0.20;;;;;;;;;;5321021;26;20743;-89
2024/04/15 13:29:53;;;;;;;0.83;0.73;;;;;;;;;;5252249;27;20254;-89
2024/04/15 13:32:19;;;;;;;4.70;0.67;;;;;;;;;;5226479;27;20349;-84
2024/04/15 13:34:46;;;;;;;0.03;0.03;;;;;;;;;;5200680;26;20289;-87
2024/04/15 13:37:13;;;;;;;0.40;0.40;;;;;;;;;;5224012;27;20258;-86
2024/04/15 13:39:39;;;;;;;0.43;0.33;;;;;;;;;;5255748;27;20243;-85
2024/04/15 13:42:06;;;;;;;0.20;0.20;;;;;;;;;;5282573;26;20266;-86
2024/04/15 13:44:32;;;;;;;0.30;0.30;;;;;;;;;;5251133;26;20258;-85
2024/04/15 13:47:01;;;;;;;0.77;0.57;;;;;;;;;;5227027;27;20265;-87
2024/04/15 13:49:27;;;;;;;0.20;0.20;;;;;;;;;;5230397;26;20755;-88
2024/04/15 13:51:54;;;;;;;0.20;0.20;;;;;;;;;;5211423;27;21099;-87
2024/04/15 13:54:21;;;;;;;0.13;0.13;;;;;;;;;;5201358;27;20266;-88
2024/04/15 13:56:47;;;;;;;0.00;0.00;;;;;;;;;;5278609;26;20271;-87
2024/04/15 13:59:13;;;;;;;0.20;0.20;;;;;;;;;;5224116;26;20258;-85
2024/04/15 14:01:39;;;;;;;0.37;0.37;;;;;;;;;;5330644;26;20260;-85
2024/04/15 14:04:06;;;;;;;0.23;0.23;;;;;;;;;;5300520;26;20291;-86
2024/04/15 14:06:32;;;;;;;0.20;0.20;;;;;;;;;;5312643;26;20257;-87
2024/04/15 14:09:01;;;;;;;0.63;0.63;;;;;;;;;;5299984;26;20267;-86
2024/04/15 14:11:27;;;;;;;0.10;0.10;;;;;;;;;;5325784;26;20260;-88
2024/04/15 14:13:53;;;;;;;0.67;0.67;;;;;;;;;;5296409;26;20269;-88
2024/04/15 14:16:24;;;;;;;0.30;0.30;;;;;;;;;;5295443;26;22201;-86
2024/04/15 14:18:50;;;;;;;0.20;0.20;;;;;;;;;;5323539;26;20252;-86
2024/04/15 14:21:22;;;;;;;0.20;0.20;;;;;;;;;;5277672;26;20273;-85
2024/04/15 14:23:49;;;;;;;0.20;0.20;;;;;;;;;;5324766;26;20302;-89
2024/04/15 14:26:22;;;;;;;0.20;0.20;;;;;;;;;;5287859;26;20303;-87
2024/04/15 14:28:48;;;;;;;2.63;1.13;;;;;;;;;;5294329;26;20264;-87
2024/04/15 14:31:15;;;;;;;0.87;0.43;;;;;;;;;;5321568;26;20241;-88
2024/04/15 14:33:41;;;;;;;0.10;0.10;;;;;;;;;;5285302;26;20240;-89
2024/04/15 14:36:10;;;;;;;0.20;0.20;;;;;;;;;;5258765;26;20322;-88
2024/04/15 14:38:39;;;;;;;0.20;0.20;;;;;;;;;;5256500;26;20364;-85
2024/04/15 14:41:08;;;;;;;0.30;0.30;;;;;;;;;;5259652;27;20298;-88